PWSweather.com
Personal Weather Stations
Station Observations
MADWEATHER
MadeiraPT

MadeiraPT

Lat: 32.735, Lon: -17.194

Elevation: 1063

Station Type: Davis VantagePro2

www.mad-weather.com

High Low Average
Temperature 75.8°F24.3°C 65.0°F18.3°C 69.4°F20.8°C
Dew Point 62.4°F16.9°C 54.7°F12.6°C 58.3°F14.6°C
Winds 11.7 mph 18.8 kmh Calm Calm 4.0 mph E6.4 kmh E
Wind Gusts 22.0 mph35.4 kmh -- 7.0 mph11.3 kmh
Humidity 79% 57% 68%
Pressure 30.18 in1022.0 mb 30.11 in1019.6 mb -
Precipitation 0.00 in0.0 mm - -
Hour Temp Dew Point Humidity Winds Wind Gusts Pressure Precip Precip Rate Daily Precip Total
12:00 AM 67.6°F19.8°C 57.9°F14.4°C 71% 2.8 mph ENE4.5 kmh ENE 5.0 mph8.0 kmh 30.18 in1022.0 mb - 0.00 in0.0 mm 0.00 in0.0 mm
12:10 AM 67.4°F19.7°C 55.6°F13.1°C 66% 3.3 mph NE5.3 kmh NE 5.0 mph8.0 kmh 30.18 in1022.0 mb - 0.00 in0.0 mm 0.00 in0.0 mm
12:20 AM 68.0°F20.0°C 55.7°F13.2°C 65% 6.9 mph NE11.1 kmh NE 11.0 mph17.7 kmh 30.17 in1021.7 mb - 0.00 in0.0 mm 0.00 in0.0 mm
12:30 AM 68.1°F20.1°C 55.5°F13.1°C 64% 6.4 mph ENE10.3 kmh ENE 10.0 mph16.1 kmh 30.17 in1021.7 mb - 0.00 in0.0 mm 0.00 in0.0 mm
12:40 AM 68.0°F20.0°C 55.7°F13.2°C 65% 8.6 mph E13.8 kmh E 13.0 mph20.9 kmh 30.17 in1021.7 mb - 0.00 in0.0 mm 0.00 in0.0 mm
12:50 AM 67.9°F19.9°C 55.7°F13.2°C 65% 5.3 mph ENE8.5 kmh ENE 8.0 mph12.9 kmh 30.16 in1021.3 mb - 0.00 in0.0 mm 0.00 in0.0 mm
01:00 AM 67.8°F19.9°C 56.0°F13.3°C 66% 5.1 mph ENE8.2 kmh ENE 9.0 mph14.5 kmh 30.17 in1021.7 mb - 0.00 in0.0 mm 0.00 in0.0 mm
01:10 AM 67.7°F19.8°C 55.5°F13.1°C 65% 4.1 mph ENE6.6 kmh ENE 5.0 mph8.0 kmh 30.17 in1021.7 mb - 0.00 in0.0 mm 0.00 in0.0 mm
01:20 AM 67.3°F19.6°C 55.6°F13.1°C 66% 4.5 mph ENE7.2 kmh ENE 6.0 mph9.7 kmh 30.17 in1021.7 mb - 0.00 in0.0 mm 0.00 in0.0 mm
01:30 AM 67.1°F19.5°C 55.4°F13.0°C 66% 4.0 mph ENE6.4 kmh ENE 5.0 mph8.0 kmh 30.16 in1021.3 mb - 0.00 in0.0 mm 0.00 in0.0 mm
01:40 AM 67.2°F19.6°C 56.2°F13.4°C 68% 3.0 mph ENE4.8 kmh ENE 4.0 mph6.4 kmh 30.16 in1021.3 mb - 0.00 in0.0 mm 0.00 in0.0 mm
01:50 AM 67.1°F19.5°C 57.7°F14.3°C 72% 3.9 mph ENE6.3 kmh ENE 6.0 mph9.7 kmh 30.17 in1021.7 mb - 0.00 in0.0 mm 0.00 in0.0 mm
02:00 AM 66.9°F19.4°C 55.2°F12.9°C 66% 2.7 mph ENE4.3 kmh ENE 4.0 mph6.4 kmh 30.16 in1021.3 mb - 0.00 in0.0 mm 0.00 in0.0 mm
02:10 AM 66.9°F19.4°C 55.2°F12.9°C 66% 2.0 mph ENE3.2 kmh ENE 2.0 mph3.2 kmh 30.16 in1021.3 mb - 0.00 in0.0 mm 0.00 in0.0 mm
02:20 AM 67.1°F19.5°C 55.7°F13.2°C 67% 10.9 mph NE17.5 kmh NE 15.0 mph24.1 kmh 30.16 in1021.3 mb - 0.00 in0.0 mm 0.00 in0.0 mm
02:30 AM 67.4°F19.7°C 55.6°F13.1°C 66% 8.8 mph NE14.2 kmh NE 13.0 mph20.9 kmh 30.16 in1021.3 mb - 0.00 in0.0 mm 0.00 in0.0 mm
02:40 AM 67.2°F19.6°C 55.9°F13.3°C 67% 8.2 mph NE13.2 kmh NE 13.0 mph20.9 kmh 30.16 in1021.3 mb - 0.00 in0.0 mm 0.00 in0.0 mm
02:50 AM 67.1°F19.5°C 55.4°F13.0°C 66% 9.1 mph NE14.6 kmh NE 12.0 mph19.3 kmh 30.16 in1021.3 mb - 0.00 in0.0 mm 0.00 in0.0 mm
03:00 AM 66.9°F19.4°C 55.2°F12.9°C 66% 5.9 mph ENE9.5 kmh ENE 7.0 mph11.3 kmh 30.16 in1021.3 mb - 0.00 in0.0 mm 0.00 in0.0 mm
03:10 AM 66.8°F19.3°C 55.5°F13.1°C 67% 4.2 mph ENE6.8 kmh ENE 6.0 mph9.7 kmh 30.16 in1021.3 mb - 0.00 in0.0 mm 0.00 in0.0 mm
03:20 AM 66.6°F19.2°C 58.0°F14.4°C 74% 3.0 mph ENE4.8 kmh ENE 4.0 mph6.4 kmh 30.16 in1021.3 mb - 0.00 in0.0 mm 0.00 in0.0 mm
03:30 AM 66.4°F19.1°C 54.7°F12.6°C 66% 8.6 mph NE13.8 kmh NE 11.0 mph17.7 kmh 30.15 in1021.0 mb - 0.00 in0.0 mm 0.00 in0.0 mm
03:40 AM 66.7°F19.3°C 55.0°F12.8°C 66% 11.6 mph NE18.7 kmh NE 17.0 mph27.4 kmh 30.15 in1021.0 mb - 0.00 in0.0 mm 0.00 in0.0 mm
03:50 AM 66.8°F19.3°C 55.1°F12.8°C 66% 8.2 mph ENE13.2 kmh ENE 11.0 mph17.7 kmh 30.15 in1021.0 mb - 0.00 in0.0 mm 0.00 in0.0 mm
04:00 AM 67.1°F19.5°C 55.4°F13.0°C 66% 6.0 mph E9.7 kmh E 15.0 mph24.1 kmh 30.15 in1021.0 mb - 0.00 in0.0 mm 0.00 in0.0 mm
04:10 AM 67.4°F19.7°C 55.2°F12.9°C 65% 4.6 mph ENE7.4 kmh ENE 6.0 mph9.7 kmh 30.15 in1021.0 mb - 0.00 in0.0 mm 0.00 in0.0 mm
04:20 AM 67.3°F19.6°C 55.5°F13.1°C 66% 5.9 mph E9.5 kmh E 11.0 mph17.7 kmh 30.15 in1021.0 mb - 0.00 in0.0 mm 0.00 in0.0 mm
04:30 AM 66.9°F19.4°C 55.2°F12.9°C 66% 5.6 mph ENE9.0 kmh ENE 10.0 mph16.1 kmh 30.14 in1020.7 mb - 0.00 in0.0 mm 0.00 in0.0 mm
04:40 AM 66.6°F19.2°C 58.0°F14.4°C 74% 3.1 mph ENE5.0 kmh ENE 4.0 mph6.4 kmh 30.15 in1021.0 mb - 0.00 in0.0 mm 0.00 in0.0 mm
04:50 AM 66.5°F19.2°C 58.7°F14.8°C 76% 2.0 mph NE3.2 kmh NE 3.0 mph4.8 kmh 30.15 in1021.0 mb - 0.00 in0.0 mm 0.00 in0.0 mm
05:00 AM 65.9°F18.8°C 57.8°F14.3°C 75% 2.7 mph NE4.3 kmh NE 3.0 mph4.8 kmh 30.14 in1020.7 mb - 0.00 in0.0 mm 0.00 in0.0 mm
05:10 AM 65.6°F18.7°C 58.2°F14.6°C 77% 1.2 mph E1.9 kmh E 4.0 mph6.4 kmh 30.14 in1020.7 mb - 0.00 in0.0 mm 0.00 in0.0 mm
05:20 AM 65.5°F18.6°C 58.5°F14.7°C 78% 1.8 mph E2.9 kmh E 3.0 mph4.8 kmh 30.14 in1020.7 mb - 0.00 in0.0 mm 0.00 in0.0 mm
05:30 AM 65.4°F18.6°C 58.7°F14.8°C 79% 2.5 mph E4.0 kmh E 3.0 mph4.8 kmh 30.15 in1021.0 mb - 0.00 in0.0 mm 0.00 in0.0 mm
05:40 AM 65.0°F18.3°C 58.0°F14.4°C 78% 3.1 mph E5.0 kmh E 4.0 mph6.4 kmh 30.15 in1021.0 mb - 0.00 in0.0 mm 0.00 in0.0 mm
05:50 AM 65.2°F18.4°C 57.5°F14.2°C 76% 7.9 mph E12.7 kmh E 12.0 mph19.3 kmh 30.15 in1021.0 mb - 0.00 in0.0 mm 0.00 in0.0 mm
06:00 AM 65.7°F18.7°C 56.4°F13.6°C 72% 2.8 mph NE4.5 kmh NE 10.0 mph16.1 kmh 30.16 in1021.3 mb - 0.00 in0.0 mm 0.00 in0.0 mm
06:10 AM 66.3°F19.1°C 55.8°F13.2°C 69% 9.0 mph ENE14.5 kmh ENE 17.0 mph27.4 kmh 30.15 in1021.0 mb - 0.00 in0.0 mm 0.00 in0.0 mm
06:20 AM 66.8°F19.3°C 56.7°F13.7°C 70% 8.8 mph E14.2 kmh E 12.0 mph19.3 kmh 30.15 in1021.0 mb - 0.00 in0.0 mm 0.00 in0.0 mm
06:30 AM 66.8°F19.3°C 56.3°F13.5°C 69% 5.6 mph E9.0 kmh E 6.0 mph9.7 kmh 30.15 in1021.0 mb - 0.00 in0.0 mm 0.00 in0.0 mm
06:40 AM 66.7°F19.3°C 57.0°F13.9°C 71% 3.8 mph ENE6.1 kmh ENE 6.0 mph9.7 kmh 30.16 in1021.3 mb - 0.00 in0.0 mm 0.00 in0.0 mm
06:50 AM 66.4°F19.1°C 58.2°F14.6°C 75% 0.1 mph E0.2 kmh E 3.0 mph4.8 kmh 30.16 in1021.3 mb - 0.00 in0.0 mm 0.00 in0.0 mm
07:00 AM 65.8°F18.8°C 57.6°F14.2°C 75% 0.1 mph E0.2 kmh E 3.0 mph4.8 kmh 30.16 in1021.3 mb - 0.00 in0.0 mm 0.00 in0.0 mm
07:10 AM 65.8°F18.8°C 58.4°F14.7°C 77% 2.6 mph E4.2 kmh E 3.0 mph4.8 kmh 30.17 in1021.7 mb - 0.00 in0.0 mm 0.00 in0.0 mm
07:20 AM 65.6°F18.7°C 58.2°F14.6°C 77% 1.8 mph E2.9 kmh E 3.0 mph4.8 kmh 30.16 in1021.3 mb - 0.00 in0.0 mm 0.00 in0.0 mm
07:30 AM 66.3°F19.1°C 59.2°F15.1°C 78% Calm Calm -- 30.17 in1021.7 mb - 0.00 in0.0 mm 0.00 in0.0 mm
07:40 AM 67.1°F19.5°C 59.6°F15.3°C 77% Calm Calm -- 30.16 in1021.3 mb - 0.00 in0.0 mm 0.00 in0.0 mm
07:50 AM 67.6°F19.8°C 60.1°F15.6°C 77% Calm Calm -- 30.17 in1021.7 mb - 0.00 in0.0 mm 0.00 in0.0 mm
08:00 AM 68.0°F20.0°C 60.1°F15.6°C 76% 0.8 mph E1.3 kmh E 2.0 mph3.2 kmh 30.17 in1021.7 mb - 0.00 in0.0 mm 0.00 in0.0 mm
08:10 AM 68.5°F20.3°C 60.3°F15.7°C 75% 2.2 mph E3.5 kmh E 4.0 mph6.4 kmh 30.17 in1021.7 mb - 0.00 in0.0 mm 0.00 in0.0 mm
08:20 AM 68.1°F20.1°C 60.2°F15.7°C 76% 2.5 mph E4.0 kmh E 4.0 mph6.4 kmh 30.17 in1021.7 mb - 0.00 in0.0 mm 0.00 in0.0 mm
08:30 AM 68.2°F20.1°C 60.0°F15.6°C 75% 3.0 mph E4.8 kmh E 6.0 mph9.7 kmh 30.17 in1021.7 mb - 0.00 in0.0 mm 0.00 in0.0 mm
08:40 AM 68.6°F20.3°C 60.0°F15.6°C 74% 1.7 mph E2.7 kmh E 3.0 mph4.8 kmh 30.18 in1022.0 mb - 0.00 in0.0 mm 0.00 in0.0 mm
08:50 AM 68.5°F20.3°C 60.3°F15.7°C 75% 1.4 mph E2.3 kmh E 3.0 mph4.8 kmh 30.18 in1022.0 mb - 0.00 in0.0 mm 0.00 in0.0 mm
09:00 AM 68.5°F20.3°C 60.6°F15.9°C 76% 1.0 mph E1.6 kmh E 3.0 mph4.8 kmh 30.18 in1022.0 mb - 0.00 in0.0 mm 0.00 in0.0 mm
09:10 AM 68.4°F20.2°C 60.9°F16.1°C 77% 1.9 mph E3.1 kmh E 3.0 mph4.8 kmh 30.18 in1022.0 mb - 0.00 in0.0 mm 0.00 in0.0 mm
09:20 AM 68.2°F20.1°C 60.7°F15.9°C 77% Calm Calm -- 30.18 in1022.0 mb - 0.00 in0.0 mm 0.00 in0.0 mm
09:30 AM 68.8°F20.4°C 60.2°F15.7°C 74% 1.5 mph E2.4 kmh E 3.0 mph4.8 kmh 30.17 in1021.7 mb - 0.00 in0.0 mm 0.00 in0.0 mm
09:40 AM 69.1°F20.6°C 60.9°F16.1°C 75% 0.4 mph E0.6 kmh E 6.0 mph9.7 kmh 30.17 in1021.7 mb - 0.00 in0.0 mm 0.00 in0.0 mm
09:50 AM 69.3°F20.7°C 61.0°F16.1°C 75% 4.4 mph ENE7.1 kmh ENE 5.0 mph8.0 kmh 30.17 in1021.7 mb - 0.00 in0.0 mm 0.00 in0.0 mm
10:00 AM 69.4°F20.8°C 61.1°F16.2°C 75% 2.9 mph ENE4.7 kmh ENE 4.0 mph6.4 kmh 30.17 in1021.7 mb - 0.00 in0.0 mm 0.00 in0.0 mm
10:10 AM 69.4°F20.8°C 61.5°F16.4°C 76% 3.4 mph ENE5.5 kmh ENE 6.0 mph9.7 kmh 30.17 in1021.7 mb - 0.00 in0.0 mm 0.00 in0.0 mm
10:20 AM 69.5°F20.8°C 61.6°F16.4°C 76% 4.0 mph ENE6.4 kmh ENE 5.0 mph8.0 kmh 30.17 in1021.7 mb - 0.00 in0.0 mm 0.00 in0.0 mm
10:30 AM 68.8°F20.4°C 61.3°F16.3°C 77% 4.7 mph ENE7.6 kmh ENE 7.0 mph11.3 kmh 30.17 in1021.7 mb - 0.00 in0.0 mm 0.00 in0.0 mm
10:40 AM 69.3°F20.7°C 61.8°F16.6°C 77% 4.8 mph E7.7 kmh E 7.0 mph11.3 kmh 30.17 in1021.7 mb - 0.00 in0.0 mm 0.00 in0.0 mm
10:50 AM 69.5°F20.8°C 61.6°F16.4°C 76% 5.3 mph E8.5 kmh E 9.0 mph14.5 kmh 30.16 in1021.3 mb - 0.00 in0.0 mm 0.00 in0.0 mm
11:00 AM 69.7°F20.9°C 61.4°F16.3°C 75% 2.5 mph E4.0 kmh E 4.0 mph6.4 kmh 30.17 in1021.7 mb - 0.00 in0.0 mm 0.00 in0.0 mm
11:10 AM 71.7°F22.1°C 61.8°F16.6°C 71% 2.5 mph E4.0 kmh E 4.0 mph6.4 kmh 30.17 in1021.7 mb - 0.00 in0.0 mm 0.00 in0.0 mm
11:20 AM 70.8°F21.6°C 61.7°F16.5°C 73% 3.4 mph E5.5 kmh E 5.0 mph8.0 kmh 30.17 in1021.7 mb - 0.00 in0.0 mm 0.00 in0.0 mm
11:30 AM 72.7°F22.6°C 60.7°F15.9°C 66% 4.6 mph E7.4 kmh E 11.0 mph17.7 kmh 30.16 in1021.3 mb - 0.00 in0.0 mm 0.00 in0.0 mm
11:40 AM 73.5°F23.1°C 61.9°F16.6°C 67% 8.0 mph ESE12.9 kmh ESE 13.0 mph20.9 kmh 30.16 in1021.3 mb - 0.00 in0.0 mm 0.00 in0.0 mm
11:50 AM 71.8°F22.1°C 62.3°F16.8°C 72% 6.7 mph SE10.8 kmh SE 12.0 mph19.3 kmh 30.16 in1021.3 mb - 0.00 in0.0 mm 0.00 in0.0 mm
12:00 PM 71.5°F21.9°C 62.4°F16.9°C 73% 5.8 mph SE9.3 kmh SE 9.0 mph14.5 kmh 30.16 in1021.3 mb - 0.00 in0.0 mm 0.00 in0.0 mm
12:10 PM 71.5°F21.9°C 61.6°F16.4°C 71% 6.0 mph SE9.7 kmh SE 9.0 mph14.5 kmh 30.16 in1021.3 mb - 0.00 in0.0 mm 0.00 in0.0 mm
12:20 PM 72.6°F22.6°C 61.8°F16.6°C 69% 3.0 mph SSE4.8 kmh SSE 5.0 mph8.0 kmh 30.16 in1021.3 mb - 0.00 in0.0 mm 0.00 in0.0 mm
12:30 PM 71.3°F21.8°C 60.2°F15.7°C 68% 4.6 mph S7.4 kmh S 6.0 mph9.7 kmh 30.16 in1021.3 mb - 0.00 in0.0 mm 0.00 in0.0 mm
12:40 PM 72.2°F22.3°C 61.0°F16.1°C 68% 4.7 mph S7.6 kmh S 7.0 mph11.3 kmh 30.16 in1021.3 mb - 0.00 in0.0 mm 0.00 in0.0 mm
12:50 PM 71.9°F22.2°C 60.3°F15.7°C 67% 4.8 mph S7.7 kmh S 6.0 mph9.7 kmh 30.16 in1021.3 mb - 0.00 in0.0 mm 0.00 in0.0 mm
01:00 PM 72.9°F22.7°C 59.1°F15.1°C 62% 2.9 mph NE4.7 kmh NE 3.0 mph4.8 kmh 30.15 in1021.0 mb - 0.00 in0.0 mm 0.00 in0.0 mm
01:10 PM 73.9°F23.3°C 59.1°F15.1°C 60% 11.7 mph ESE18.8 kmh ESE 21.0 mph33.8 kmh 30.15 in1021.0 mb - 0.00 in0.0 mm 0.00 in0.0 mm
01:20 PM 72.6°F22.6°C 58.3°F14.6°C 61% 5.3 mph SE8.5 kmh SE 8.0 mph12.9 kmh 30.15 in1021.0 mb - 0.00 in0.0 mm 0.00 in0.0 mm
01:30 PM 74.7°F23.7°C 60.8°F16.0°C 62% 5.6 mph SE9.0 kmh SE 11.0 mph17.7 kmh 30.15 in1021.0 mb - 0.00 in0.0 mm 0.00 in0.0 mm
01:40 PM 73.4°F23.0°C 59.6°F15.3°C 62% 2.8 mph SSE4.5 kmh SSE 10.0 mph16.1 kmh 30.14 in1020.7 mb - 0.00 in0.0 mm 0.00 in0.0 mm
01:50 PM 73.1°F22.8°C 60.2°F15.7°C 64% 4.1 mph SE6.6 kmh SE 9.0 mph14.5 kmh 30.14 in1020.7 mb - 0.00 in0.0 mm 0.00 in0.0 mm
02:00 PM 73.4°F23.0°C 59.6°F15.3°C 62% 4.8 mph SE7.7 kmh SE 9.0 mph14.5 kmh 30.15 in1021.0 mb - 0.00 in0.0 mm 0.00 in0.0 mm
02:10 PM 74.5°F23.6°C 60.2°F15.7°C 61% 9.3 mph SSE15.0 kmh SSE 10.0 mph16.1 kmh 30.14 in1020.7 mb - 0.00 in0.0 mm 0.00 in0.0 mm
02:20 PM 74.4°F23.6°C 59.6°F15.3°C 60% 11.5 mph ESE18.5 kmh ESE 22.0 mph35.4 kmh 30.13 in1020.3 mb - 0.00 in0.0 mm 0.00 in0.0 mm
02:30 PM 74.0°F23.3°C 61.0°F16.1°C 64% 6.3 mph SE10.1 kmh SE 9.0 mph14.5 kmh 30.14 in1020.7 mb - 0.00 in0.0 mm 0.00 in0.0 mm
02:40 PM 74.7°F23.7°C 59.4°F15.2°C 59% 3.6 mph ENE5.8 kmh ENE 11.0 mph17.7 kmh 30.14 in1020.7 mb - 0.00 in0.0 mm 0.00 in0.0 mm
02:50 PM 74.9°F23.8°C 59.1°F15.1°C 58% 4.9 mph NE7.9 kmh NE 11.0 mph17.7 kmh 30.14 in1020.7 mb - 0.00 in0.0 mm 0.00 in0.0 mm
03:00 PM 74.9°F23.8°C 59.1°F15.1°C 58% 9.3 mph NE15.0 kmh NE 12.0 mph19.3 kmh 30.14 in1020.7 mb - 0.00 in0.0 mm 0.00 in0.0 mm
03:10 PM 74.4°F23.6°C 58.7°F14.8°C 58% 1.4 mph NE2.3 kmh NE 2.0 mph3.2 kmh 30.14 in1020.7 mb - 0.00 in0.0 mm 0.00 in0.0 mm
03:20 PM 75.8°F24.3°C 59.5°F15.3°C 57% 3.8 mph E6.1 kmh E 7.0 mph11.3 kmh 30.14 in1020.7 mb - 0.00 in0.0 mm 0.00 in0.0 mm
03:30 PM 74.7°F23.7°C 59.0°F15.0°C 58% 2.9 mph E4.7 kmh E 9.0 mph14.5 kmh 30.14 in1020.7 mb - 0.00 in0.0 mm 0.00 in0.0 mm
03:40 PM 73.3°F22.9°C 58.5°F14.7°C 60% 5.6 mph E9.0 kmh E 10.0 mph16.1 kmh 30.14 in1020.7 mb - 0.00 in0.0 mm 0.00 in0.0 mm
03:50 PM 72.9°F22.7°C 58.6°F14.8°C 61% 4.9 mph ENE7.9 kmh ENE 10.0 mph16.1 kmh 30.14 in1020.7 mb - 0.00 in0.0 mm 0.00 in0.0 mm
04:00 PM 72.6°F22.6°C 58.8°F14.9°C 62% 2.9 mph ENE4.7 kmh ENE 7.0 mph11.3 kmh 30.13 in1020.3 mb - 0.00 in0.0 mm 0.00 in0.0 mm
04:10 PM 72.3°F22.4°C 59.0°F15.0°C 63% 5.4 mph ENE8.7 kmh ENE 7.0 mph11.3 kmh 30.13 in1020.3 mb - 0.00 in0.0 mm 0.00 in0.0 mm
04:20 PM 72.1°F22.3°C 58.8°F14.9°C 63% 5.8 mph NE9.3 kmh NE 6.0 mph9.7 kmh 30.13 in1020.3 mb - 0.00 in0.0 mm 0.00 in0.0 mm
04:30 PM 72.4°F22.4°C 59.1°F15.1°C 63% 3.5 mph ENE5.6 kmh ENE 6.0 mph9.7 kmh 30.13 in1020.3 mb - 0.00 in0.0 mm 0.00 in0.0 mm
04:40 PM 72.6°F22.6°C 61.4°F16.3°C 68% 5.0 mph E8.0 kmh E 7.0 mph11.3 kmh 30.13 in1020.3 mb - 0.00 in0.0 mm 0.00 in0.0 mm
04:50 PM 72.3°F22.4°C 61.1°F16.2°C 68% 4.3 mph SE6.9 kmh SE 7.0 mph11.3 kmh 30.12 in1020.0 mb - 0.00 in0.0 mm 0.00 in0.0 mm
05:00 PM 72.9°F22.7°C 58.7°F14.8°C 61% 7.9 mph ESE12.7 kmh ESE 11.0 mph17.7 kmh 30.12 in1020.0 mb - 0.00 in0.0 mm 0.00 in0.0 mm
05:10 PM 72.7°F22.6°C 59.8°F15.4°C 64% 0.5 mph E0.8 kmh E 4.0 mph6.4 kmh 30.12 in1020.0 mb - 0.00 in0.0 mm 0.00 in0.0 mm
05:20 PM 72.4°F22.4°C 59.5°F15.3°C 64% 4.8 mph ESE7.7 kmh ESE 7.0 mph11.3 kmh 30.12 in1020.0 mb - 0.00 in0.0 mm 0.00 in0.0 mm
05:30 PM 72.3°F22.4°C 58.6°F14.8°C 62% 2.5 mph E4.0 kmh E 6.0 mph9.7 kmh 30.12 in1020.0 mb - 0.00 in0.0 mm 0.00 in0.0 mm
05:40 PM 72.8°F22.7°C 59.5°F15.3°C 63% 6.9 mph ENE11.1 kmh ENE 7.0 mph11.3 kmh 30.12 in1020.0 mb - 0.00 in0.0 mm 0.00 in0.0 mm
05:50 PM 72.2°F22.3°C 58.0°F14.4°C 61% 7.0 mph ENE11.3 kmh ENE 12.0 mph19.3 kmh 30.12 in1020.0 mb - 0.00 in0.0 mm 0.00 in0.0 mm
06:00 PM 71.8°F22.1°C 58.0°F14.4°C 62% 5.8 mph E9.3 kmh E 7.0 mph11.3 kmh 30.12 in1020.0 mb - 0.00 in0.0 mm 0.00 in0.0 mm
06:10 PM 71.8°F22.1°C 58.1°F14.5°C 62% 4.0 mph E6.4 kmh E 11.0 mph17.7 kmh 30.12 in1020.0 mb - 0.00 in0.0 mm 0.00 in0.0 mm
06:20 PM 71.2°F21.8°C 57.5°F14.2°C 62% 2.7 mph ENE4.3 kmh ENE 4.0 mph6.4 kmh 30.11 in1019.6 mb - 0.00 in0.0 mm 0.00 in0.0 mm
06:30 PM 71.3°F21.8°C 57.6°F14.2°C 62% 1.1 mph ENE1.8 kmh ENE 1.0 mph1.6 kmh 30.11 in1019.6 mb - 0.00 in0.0 mm 0.00 in0.0 mm
06:40 PM 71.6°F22.0°C 57.9°F14.4°C 62% 1.5 mph ENE2.4 kmh ENE 4.0 mph6.4 kmh 30.12 in1020.0 mb - 0.00 in0.0 mm 0.00 in0.0 mm
06:50 PM 71.5°F21.9°C 57.8°F14.3°C 62% 4.4 mph E7.1 kmh E 7.0 mph11.3 kmh 30.12 in1020.0 mb - 0.00 in0.0 mm 0.00 in0.0 mm
07:00 PM 71.2°F21.8°C 58.0°F14.4°C 63% 3.5 mph ENE5.6 kmh ENE 4.0 mph6.4 kmh 30.12 in1020.0 mb - 0.00 in0.0 mm 0.00 in0.0 mm
07:10 PM 71.0°F21.7°C 57.7°F14.3°C 63% 8.3 mph NE13.4 kmh NE 12.0 mph19.3 kmh 30.12 in1020.0 mb - 0.00 in0.0 mm 0.00 in0.0 mm
07:20 PM 70.7°F21.5°C 57.1°F13.9°C 62% 1.0 mph NE1.6 kmh NE 2.0 mph3.2 kmh 30.12 in1020.0 mb - 0.00 in0.0 mm 0.00 in0.0 mm
07:30 PM 70.6°F21.4°C 57.0°F13.9°C 62% 4.7 mph NE7.6 kmh NE 5.0 mph8.0 kmh 30.12 in1020.0 mb - 0.00 in0.0 mm 0.00 in0.0 mm
07:40 PM 70.3°F21.3°C 57.1°F13.9°C 63% 2.5 mph NE4.0 kmh NE 6.0 mph9.7 kmh 30.12 in1020.0 mb - 0.00 in0.0 mm 0.00 in0.0 mm
07:50 PM 70.1°F21.2°C 56.9°F13.8°C 63% 1.8 mph NE2.9 kmh NE 3.0 mph4.8 kmh 30.12 in1020.0 mb - 0.00 in0.0 mm 0.00 in0.0 mm
08:00 PM 70.0°F21.1°C 59.3°F15.2°C 69% 3.0 mph NE4.8 kmh NE 5.0 mph8.0 kmh 30.12 in1020.0 mb - 0.00 in0.0 mm 0.00 in0.0 mm
08:10 PM 69.6°F20.9°C 58.2°F14.6°C 67% 2.1 mph NE3.4 kmh NE 7.0 mph11.3 kmh 30.12 in1020.0 mb - 0.00 in0.0 mm 0.00 in0.0 mm
08:20 PM 69.3°F20.7°C 57.4°F14.1°C 66% 3.6 mph NE5.8 kmh NE 5.0 mph8.0 kmh 30.12 in1020.0 mb - 0.00 in0.0 mm 0.00 in0.0 mm
08:30 PM 69.3°F20.7°C 59.1°F15.1°C 70% 2.9 mph NE4.7 kmh NE 5.0 mph8.0 kmh 30.12 in1020.0 mb - 0.00 in0.0 mm 0.00 in0.0 mm
08:40 PM 69.2°F20.7°C 60.2°F15.7°C 73% 1.6 mph NE2.6 kmh NE 4.0 mph6.4 kmh 30.12 in1020.0 mb - 0.00 in0.0 mm 0.00 in0.0 mm
08:50 PM 68.9°F20.5°C 60.2°F15.7°C 74% Calm Calm -- 30.12 in1020.0 mb - 0.00 in0.0 mm 0.00 in0.0 mm
09:00 PM 68.7°F20.4°C 60.5°F15.8°C 75% 2.4 mph NE3.9 kmh NE 4.0 mph6.4 kmh 30.12 in1020.0 mb - 0.00 in0.0 mm 0.00 in0.0 mm
09:10 PM 68.4°F20.2°C 57.8°F14.3°C 69% 3.0 mph NE4.8 kmh NE 7.0 mph11.3 kmh 30.12 in1020.0 mb - 0.00 in0.0 mm 0.00 in0.0 mm
09:20 PM 68.5°F20.3°C 57.5°F14.2°C 68% 6.1 mph NE9.8 kmh NE 13.0 mph20.9 kmh 30.12 in1020.0 mb - 0.00 in0.0 mm 0.00 in0.0 mm
09:30 PM 68.4°F20.2°C 57.0°F13.9°C 67% 6.8 mph NE10.9 kmh NE 10.0 mph16.1 kmh 30.13 in1020.3 mb - 0.00 in0.0 mm 0.00 in0.0 mm
09:40 PM 68.6°F20.3°C 58.4°F14.7°C 70% 3.5 mph ENE5.6 kmh ENE 7.0 mph11.3 kmh 30.14 in1020.7 mb - 0.00 in0.0 mm 0.00 in0.0 mm
09:50 PM 68.4°F20.2°C 56.6°F13.7°C 66% 6.2 mph ENE10.0 kmh ENE 7.0 mph11.3 kmh 30.14 in1020.7 mb - 0.00 in0.0 mm 0.00 in0.0 mm
10:00 PM 68.3°F20.2°C 56.5°F13.6°C 66% 8.4 mph NE13.5 kmh NE 11.0 mph17.7 kmh 30.14 in1020.7 mb - 0.00 in0.0 mm 0.00 in0.0 mm
10:10 PM 68.0°F20.0°C 56.6°F13.7°C 67% 2.5 mph NE4.0 kmh NE 4.0 mph6.4 kmh 30.14 in1020.7 mb - 0.00 in0.0 mm 0.00 in0.0 mm
10:20 PM 67.9°F19.9°C 56.5°F13.6°C 67% 9.0 mph NE14.5 kmh NE 11.0 mph17.7 kmh 30.14 in1020.7 mb - 0.00 in0.0 mm 0.00 in0.0 mm
10:30 PM 68.0°F20.0°C 56.2°F13.4°C 66% 3.0 mph NE4.8 kmh NE 4.0 mph6.4 kmh 30.14 in1020.7 mb - 0.00 in0.0 mm 0.00 in0.0 mm
10:40 PM 67.9°F19.9°C 56.5°F13.6°C 67% 5.4 mph NE8.7 kmh NE 11.0 mph17.7 kmh 30.15 in1021.0 mb - 0.00 in0.0 mm 0.00 in0.0 mm
10:50 PM 67.7°F19.8°C 55.9°F13.3°C 66% 3.2 mph NE5.1 kmh NE 5.0 mph8.0 kmh 30.15 in1021.0 mb - 0.00 in0.0 mm 0.00 in0.0 mm
11:00 PM 67.6°F19.8°C 55.8°F13.2°C 66% 2.6 mph NE4.2 kmh NE 7.0 mph11.3 kmh 30.15 in1021.0 mb - 0.00 in0.0 mm 0.00 in0.0 mm
11:10 PM 67.6°F19.8°C 55.8°F13.2°C 66% 3.4 mph NE5.5 kmh NE 6.0 mph9.7 kmh 30.15 in1021.0 mb - 0.00 in0.0 mm 0.00 in0.0 mm
11:20 PM 67.5°F19.7°C 55.8°F13.2°C 66% 1.2 mph NE1.9 kmh NE 2.0 mph3.2 kmh 30.15 in1021.0 mb - 0.00 in0.0 mm 0.00 in0.0 mm
11:30 PM 67.5°F19.7°C 56.1°F13.4°C 67% Calm Calm -- 30.16 in1021.3 mb - 0.00 in0.0 mm 0.00 in0.0 mm
11:40 PM 67.2°F19.6°C 55.8°F13.2°C 67% Calm Calm -- 30.15 in1021.0 mb - 0.00 in0.0 mm 0.00 in0.0 mm
11:50 PM 66.7°F19.3°C 55.4°F13.0°C 67% 2.4 mph NE3.9 kmh NE 3.0 mph4.8 kmh 30.15 in1021.0 mb - 0.00 in0.0 mm 0.00 in0.0 mm